createdAt,value
2022-12-25T00:20:03.197Z,98259.00
2022-12-25T00:32:12.632Z,98224.00
2022-12-25T00:39:40.869Z,98256.00
2022-12-25T00:46:45.395Z,98229.00
2022-12-25T00:54:10.133Z,98240.00
2022-12-25T00:58:11.187Z,98252.00
2022-12-25T01:13:39.012Z,98257.00
2022-12-25T01:21:09.205Z,98238.00
2022-12-25T01:36:51.443Z,98266.00
2022-12-25T01:44:05.510Z,98248.00
2022-12-25T01:53:47.530Z,98269.00
2022-12-25T02:00:54.652Z,98268.00
2022-12-25T02:07:48.950Z,98249.00
2022-12-25T02:19:25.630Z,98263.00
2022-12-25T02:26:53.336Z,98269.00
2022-12-25T02:30:55.204Z,98265.00
2022-12-25T02:38:27.360Z,98244.00
2022-12-25T02:42:50.801Z,98260.00
2022-12-25T02:46:48.088Z,98265.00
2022-12-25T02:58:31.714Z,98245.00
2022-12-25T03:02:20.261Z,98272.00
2022-12-25T03:09:56.456Z,98253.00
2022-12-25T03:13:36.848Z,98251.00
2022-12-25T03:20:39.300Z,98222.00
2022-12-25T03:27:34.901Z,98243.00
2022-12-25T03:34:53.353Z,98238.00
2022-12-25T03:42:04.541Z,98236.00
2022-12-25T03:53:26.729Z,98195.00
2022-12-25T03:57:35.448Z,98209.00
2022-12-25T04:04:57.136Z,98215.00
2022-12-25T04:08:52.722Z,98212.00
2022-12-25T04:24:35.804Z,98193.00
2022-12-25T04:31:55.162Z,98183.00
2022-12-25T04:39:08.700Z,98170.00
2022-12-25T04:42:34.601Z,98206.00
2022-12-25T04:53:37.741Z,98165.00
2022-12-25T05:00:22.917Z,98159.00
2022-12-25T05:07:21.300Z,98194.00
2022-12-25T05:19:01.842Z,98175.00
2022-12-25T05:25:43.518Z,98179.00
2022-12-25T05:32:50.080Z,98146.00
2022-12-25T05:39:42.698Z,98176.00
2022-12-25T05:46:37.280Z,98162.00
2022-12-25T05:58:18.928Z,98155.00
2022-12-25T06:08:59.523Z,98105.00
2022-12-25T06:12:03.576Z,98142.00
2022-12-25T06:18:55.203Z,98154.00
2022-12-25T06:26:06.184Z,98097.00
2022-12-25T06:33:05.708Z,98088.00
2022-12-25T06:40:34.612Z,98123.00
2022-12-25T06:52:22.349Z,98102.00
2022-12-25T06:55:46.692Z,98103.00
2022-12-25T06:59:54.741Z,98125.00
2022-12-25T07:32:15.074Z,98140.00
2022-12-25T08:06:47.506Z,98083.00
2022-12-25T08:46:29.118Z,98084.00
2022-12-25T08:50:18.710Z,98110.00
2022-12-25T08:57:08.489Z,98095.00
2022-12-25T09:03:53.570Z,98078.00
2022-12-25T09:07:06.193Z,98089.00
2022-12-25T09:14:16.439Z,98082.00
2022-12-25T09:18:28.884Z,98076.00
2022-12-25T09:44:47.521Z,98083.00
2022-12-25T09:51:32.780Z,98082.00
2022-12-25T09:58:27.884Z,98051.00
2022-12-25T10:01:47.015Z,98079.00
2022-12-25T10:13:16.288Z,98069.00
2022-12-25T10:17:14.191Z,98082.00
2022-12-25T10:28:34.337Z,98078.00
2022-12-25T10:35:36.989Z,98059.00
2022-12-25T10:42:54.970Z,98054.00
2022-12-25T10:50:30.013Z,98043.00
2022-12-25T10:54:12.966Z,98039.00
2022-12-25T11:00:56.110Z,98036.00
2022-12-25T11:12:05.297Z,98027.00
2022-12-25T11:19:10.989Z,98018.00
2022-12-25T11:25:58.858Z,98003.00
2022-12-25T11:32:56.466Z,98003.00
2022-12-25T11:39:46.338Z,97991.00
2022-12-25T11:46:32.790Z,97986.00
2022-12-25T11:53:53.042Z,97986.00
2022-12-25T12:00:50.622Z,97982.00
2022-12-25T12:12:02.925Z,97964.00
2022-12-25T12:18:54.357Z,97950.00
2022-12-25T12:25:49.006Z,97919.00
2022-12-25T12:32:46.540Z,97920.00
2022-12-25T12:39:37.230Z,97930.00
2022-12-25T12:46:31.030Z,97926.00
2022-12-25T12:53:33.543Z,97932.00
2022-12-25T13:00:29.495Z,97921.00
2022-12-25T13:11:32.698Z,97895.00
2022-12-25T13:18:22.951Z,97914.00
2022-12-25T13:29:31.977Z,97906.00
2022-12-25T13:32:49.404Z,97903.00
2022-12-25T13:39:51.653Z,97908.00
2022-12-25T13:46:44.753Z,97908.00
2022-12-25T13:53:32.322Z,97916.00
2022-12-25T14:00:24.310Z,97920.00
2022-12-25T14:11:43.068Z,97905.00
2022-12-25T14:18:37.417Z,97889.00
2022-12-25T14:33:55.262Z,97903.00
2022-12-25T14:44:38.862Z,97896.00
2022-12-25T14:51:23.709Z,97909.00
2022-12-25T14:58:26.483Z,97906.00
2022-12-25T15:05:42.569Z,97904.00
2022-12-25T15:12:34.173Z,97885.00
2022-12-25T15:19:46.502Z,97892.00
2022-12-25T15:30:51.688Z,97921.00
2022-12-25T15:38:03.536Z,97918.00
2022-12-25T15:45:09.820Z,97899.00
2022-12-25T15:47:46.786Z,97911.00
2022-12-25T15:51:01.805Z,97909.00
2022-12-25T15:58:09.409Z,97906.00
2022-12-25T16:05:10.268Z,97900.00
2022-12-25T16:11:52.884Z,97910.00
2022-12-25T16:18:47.100Z,97917.00
2022-12-25T16:25:51.406Z,97925.00
2022-12-25T16:32:57.542Z,97928.00
2022-12-25T16:39:56.997Z,97914.00
2022-12-25T16:50:57.878Z,97918.00
2022-12-25T16:57:47.818Z,97937.00
2022-12-25T17:04:36.017Z,97946.00
2022-12-25T17:11:23.902Z,97942.00
2022-12-25T17:18:14.560Z,97957.00
2022-12-25T17:25:05.680Z,97960.00
2022-12-25T17:31:50.065Z,97918.00
2022-12-25T17:48:30.309Z,97942.00
2022-12-25T17:55:37.244Z,97968.00
2022-12-25T18:24:07.617Z,97983.00
2022-12-25T18:30:51.076Z,97983.00
2022-12-25T19:04:24.412Z,98006.00
2022-12-25T19:08:20.717Z,98012.00
2022-12-25T19:15:12.396Z,98006.00
2022-12-25T19:22:07.896Z,98007.00
2022-12-25T19:28:58.251Z,98012.00
2022-12-25T19:50:03.427Z,98018.00
2022-12-25T19:54:03.918Z,98013.00
2022-12-25T20:01:04.029Z,98024.00
2022-12-25T20:15:29.147Z,98030.00
2022-12-25T20:22:17.494Z,98038.00
2022-12-25T20:26:05.320Z,98042.00
2022-12-25T20:33:01.846Z,98033.00
2022-12-25T20:57:17.126Z,98062.00
2022-12-25T21:25:39.205Z,98053.00
2022-12-25T21:32:37.326Z,98067.00
2022-12-25T21:39:24.503Z,98054.00
2022-12-25T22:04:43.440Z,98052.00
2022-12-25T22:08:25.881Z,98073.00
2022-12-25T22:15:40.982Z,98088.00
2022-12-25T22:38:05.950Z,98085.00
2022-12-25T23:09:58.214Z,98106.00
2022-12-25T23:16:52.347Z,98110.00
2022-12-25T23:23:56.828Z,98123.00
2022-12-25T23:31:40.991Z,98127.00
2022-12-25T23:34:25.446Z,98135.00
2022-12-25T23:41:15.533Z,98136.00
2022-12-25T23:48:02.491Z,98132.00
2022-12-25T23:54:59.305Z,98139.00
